Time;durP1;ratioP1;P1;durP2;ratioP2;P2;SDS_P1;SDS_P2;PMS_P1;PMS_P2;Temp;Humidity;BMP_temperature;BMP_pressure;BME280_temperature;BME280_humidity;BME280_pressure;Samples;Min_cycle;Max_cycle;Signal;HPM_P1;HPM_P2
2021/05/26 00:01:29;;;;;;;0.30;0.30;;;15.10;99.90;;;;;;5067197;28;20517;-62
2021/05/26 00:03:56;;;;;;;1.20;0.50;;;15.00;99.90;;;;;;5065790;28;20444;-63
2021/05/26 00:06:22;;;;;;;1.45;0.75;;;14.80;99.90;;;;;;5066926;28;20024;-63
2021/05/26 00:08:48;;;;;;;0.63;0.50;;;14.60;99.90;;;;;;5067231;28;20111;-63
2021/05/26 00:11:14;;;;;;;0.40;0.40;;;14.40;99.90;;;;;;5066531;28;20042;-63
2021/05/26 00:13:45;;;;;;;0.88;0.40;;;14.40;99.90;;;;;;5065841;28;20111;-63
2021/05/26 00:16:11;;;;;;;0.38;0.38;;;14.20;99.90;;;;;;5065728;28;20173;-63
2021/05/26 00:18:37;;;;;;;0.85;0.40;;;14.20;99.90;;;;;;5064887;28;20028;-63
2021/05/26 00:21:05;;;;;;;0.75;0.40;;;14.00;99.90;;;;;;5066386;28;20024;-63
2021/05/26 00:23:30;;;;;;;1.88;0.40;;;13.90;99.90;;;;;;5066854;28;20525;-63
2021/05/26 00:25:56;;;;;;;0.40;0.40;;;13.80;99.90;;;;;;5065913;28;20048;-63
2021/05/26 00:28:22;;;;;;;0.35;0.35;;;13.90;99.90;;;;;;5066844;28;20016;-62
2021/05/26 00:30:50;;;;;;;0.50;0.50;;;13.70;99.90;;;;;;5066856;28;20506;-63
2021/05/26 00:33:21;;;;;;;1.10;0.50;;;13.70;99.90;;;;;;5065480;28;20021;-63
2021/05/26 00:35:48;;;;;;;1.00;0.52;;;13.90;99.90;;;;;;5066264;28;20056;-63
2021/05/26 00:38:14;;;;;;;0.82;0.50;;;14.00;99.90;;;;;;5065312;28;20047;-63
2021/05/26 00:40:40;;;;;;;1.23;0.60;;;14.00;99.90;;;;;;5065411;28;20097;-63
2021/05/26 00:43:07;;;;;;;0.40;0.40;;;13.80;99.90;;;;;;5065323;28;20017;-63
2021/05/26 00:45:35;;;;;;;1.10;0.45;;;13.80;99.90;;;;;;5065973;28;20053;-63
2021/05/26 00:48:01;;;;;;;0.60;0.57;;;13.90;99.90;;;;;;5066503;28;20013;-63
2021/05/26 00:50:29;;;;;;;1.48;0.60;;;13.90;99.90;;;;;;5065678;28;20051;-63
2021/05/26 00:53:06;;;;;;;1.17;0.60;;;13.90;99.90;;;;;;5064349;28;20466;-63
2021/05/26 00:55:32;;;;;;;0.30;0.30;;;13.80;99.90;;;;;;5065468;28;20062;-62
2021/05/26 00:58:00;;;;;;;0.75;0.50;;;13.70;99.90;;;;;;5066255;28;20060;-63
2021/05/26 01:00:28;;;;;;;0.63;0.50;;;13.80;99.90;;;;;;5065746;28;20039;-63
2021/05/26 01:02:56;;;;;;;0.90;0.63;;;13.80;99.90;;;;;;5065498;28;20107;-63
2021/05/26 01:05:24;;;;;;;0.52;0.50;;;13.90;99.90;;;;;;5065640;28;20031;-64
2021/05/26 01:07:51;;;;;;;0.82;0.55;;;13.80;99.90;;;;;;5062756;28;20490;-63
2021/05/26 01:10:20;;;;;;;0.63;0.47;;;13.80;99.90;;;;;;5063636;28;20090;-62
2021/05/26 01:12:46;;;;;;;0.75;0.55;;;13.90;99.90;;;;;;5065364;28;20082;-63
2021/05/26 01:15:13;;;;;;;1.00;0.50;;;13.80;99.90;;;;;;5065279;28;20036;-63
2021/05/26 01:17:40;;;;;;;0.90;0.65;;;13.80;99.90;;;;;;5065210;28;20129;-63
2021/05/26 01:20:10;;;;;;;1.05;0.70;;;13.70;99.90;;;;;;5065408;28;20029;-63
2021/05/26 01:22:36;;;;;;;0.82;0.57;;;13.70;99.90;;;;;;5064899;28;20035;-63
2021/05/26 01:25:06;;;;;;;0.68;0.50;;;13.70;99.90;;;;;;5065349;28;20117;-63
2021/05/26 01:27:32;;;;;;;1.08;0.55;;;13.60;99.90;;;;;;5065111;28;20036;-62
2021/05/26 01:29:59;;;;;;;0.60;0.60;;;13.50;99.90;;;;;;5065519;28;20086;-63
2021/05/26 01:32:26;;;;;;;1.00;0.60;;;13.50;99.90;;;;;;5065406;28;20027;-63
2021/05/26 01:34:53;;;;;;;1.80;0.70;;;13.70;99.90;;;;;;5064219;28;20035;-62
2021/05/26 01:37:21;;;;;;;1.00;0.55;;;13.70;99.90;;;;;;5064860;28;20033;-63
2021/05/26 01:39:48;;;;;;;0.90;0.65;;;13.90;99.90;;;;;;5063540;28;20081;-63
2021/05/26 01:42:31;;;;;;;0.65;0.50;;;14.00;99.90;;;;;;5064555;28;20105;-63
2021/05/26 01:44:58;;;;;;;1.05;0.75;;;14.00;99.90;;;;;;5065705;28;20403;-63
2021/05/26 01:47:24;;;;;;;0.50;0.50;;;13.90;99.90;;;;;;5065034;28;20036;-63
2021/05/26 01:49:49;;;;;;;1.40;0.50;;;13.90;99.90;;;;;;5063335;28;20024;-63
2021/05/26 01:52:16;;;;;;;0.90;0.60;;;13.70;99.90;;;;;;5064939;28;20035;-63
2021/05/26 01:54:43;;;;;;;0.40;0.40;;;13.40;99.90;;;;;;5064206;28;20036;-63
2021/05/26 01:57:09;;;;;;;0.93;0.50;;;13.50;99.90;;;;;;5064724;28;20457;-62
2021/05/26 01:59:34;;;;;;;0.43;0.43;;;13.50;99.90;;;;;;5064576;28;20036;-63
2021/05/26 02:02:00;;;;;;;0.38;0.38;;;13.40;99.90;;;;;;5065376;28;20021;-62
2021/05/26 02:04:26;;;;;;;0.40;0.40;;;13.50;99.90;;;;;;5064694;28;20096;-63
2021/05/26 02:07:01;;;;;;;0.50;0.50;;;13.30;99.90;;;;;;5064310;28;20553;-63
2021/05/26 02:09:28;;;;;;;0.60;0.50;;;13.10;99.90;;;;;;5064758;28;20066;-63
2021/05/26 02:14:38;;;;;;;;;;;12.90;99.90;;;;;;5064882;28;20114;-62
2021/05/26 02:17:04;;;;;;;0.40;0.40;;;12.90;99.90;;;;;;5064787;28;19904;-63
2021/05/26 02:19:31;;;;;;;0.52;0.40;;;12.80;99.90;;;;;;5064988;28;20399;-62
2021/05/26 02:21:56;;;;;;;0.77;0.50;;;12.90;99.90;;;;;;5064794;28;20056;-62
2021/05/26 02:24:22;;;;;;;0.77;0.50;;;13.10;99.90;;;;;;5064650;28;20020;-62
2021/05/26 02:26:48;;;;;;;1.02;0.52;;;13.20;99.90;;;;;;5063966;28;20035;-62
2021/05/26 02:29:14;;;;;;;0.60;0.30;;;13.10;99.90;;;;;;5064772;28;20044;-62
2021/05/26 02:31:40;;;;;;;0.40;0.40;;;13.10;99.90;;;;;;5062690;28;20021;-63
2021/05/26 02:34:06;;;;;;;0.68;0.50;;;13.10;99.90;;;;;;5064531;28;20024;-62
2021/05/26 02:36:32;;;;;;;0.50;0.50;;;13.00;99.90;;;;;;5063645;28;20040;-62
2021/05/26 02:38:59;;;;;;;0.80;0.50;;;13.00;99.90;;;;;;5064120;28;20035;-62
2021/05/26 02:41:24;;;;;;;1.02;0.65;;;13.00;99.90;;;;;;5063651;28;20044;-62
2021/05/26 02:43:50;;;;;;;1.00;0.50;;;13.00;99.90;;;;;;5062646;28;20025;-63
2021/05/26 02:46:16;;;;;;;1.33;0.60;;;12.90;99.90;;;;;;5064287;28;20479;-63
2021/05/26 02:48:42;;;;;;;0.47;0.47;;;12.90;99.90;;;;;;5063412;28;20070;-63
2021/05/26 02:51:08;;;;;;;0.90;0.50;;;12.90;99.90;;;;;;5063414;28;20037;-63
2021/05/26 02:53:34;;;;;;;0.77;0.60;;;12.90;99.90;;;;;;5064585;28;20055;-63
2021/05/26 02:56:00;;;;;;;0.90;0.68;;;13.00;99.90;;;;;;5064758;28;20036;-62
2021/05/26 02:58:26;;;;;;;0.80;0.70;;;12.80;99.90;;;;;;5063551;28;20037;-62
2021/05/26 03:00:52;;;;;;;0.65;0.52;;;12.80;99.90;;;;;;5063969;28;20505;-62
2021/05/26 03:03:17;;;;;;;0.85;0.70;;;12.80;99.90;;;;;;5064151;28;20078;-63
2021/05/26 03:05:44;;;;;;;1.02;0.50;;;12.80;99.90;;;;;;5063678;28;20085;-63
2021/05/26 03:08:10;;;;;;;0.63;0.45;;;12.90;99.90;;;;;;5063637;28;20025;-62
2021/05/26 03:10:36;;;;;;;0.88;0.50;;;13.00;99.90;;;;;;5063558;28;20044;-63
2021/05/26 03:13:01;;;;;;;0.60;0.60;;;13.20;99.90;;;;;;5064908;28;20039;-62
2021/05/26 03:15:27;;;;;;;1.67;0.60;;;13.40;99.90;;;;;;5064821;28;20146;-63
2021/05/26 03:17:53;;;;;;;0.90;0.45;;;13.40;99.90;;;;;;5067231;28;20035;-63
2021/05/26 03:20:18;;;;;;;0.70;0.50;;;13.40;99.90;;;;;;5067173;28;20093;-63
2021/05/26 03:22:44;;;;;;;1.50;0.85;;;13.20;99.90;;;;;;5067563;28;20031;-62
2021/05/26 03:25:12;;;;;;;0.95;0.60;;;13.10;99.90;;;;;;5067752;28;20115;-63
2021/05/26 03:27:39;;;;;;;0.88;0.52;;;13.20;99.90;;;;;;5067478;28;20017;-63
2021/05/26 03:30:15;;;;;;;0.45;0.43;;;13.20;99.90;;;;;;5067760;28;20094;-63
2021/05/26 03:32:42;;;;;;;0.68;0.50;;;13.30;99.90;;;;;;5067550;28;20048;-63
2021/05/26 03:35:14;;;;;;;0.73;0.60;;;13.30;99.90;;;;;;5067392;28;20059;-62
2021/05/26 03:37:41;;;;;;;4.07;0.63;;;13.30;99.90;;;;;;5067478;28;20507;-62
2021/05/26 03:40:09;;;;;;;1.17;0.50;;;13.20;99.90;;;;;;5067740;28;20024;-62
2021/05/26 03:42:34;;;;;;;0.55;0.50;;;13.00;99.90;;;;;;5066358;28;20071;-63
2021/05/26 03:45:00;;;;;;;1.25;0.57;;;13.00;99.90;;;;;;5067861;28;20052;-63
2021/05/26 03:47:26;;;;;;;0.88;0.60;;;13.10;99.90;;;;;;5065180;28;20013;-63
2021/05/26 03:49:52;;;;;;;0.90;0.50;;;13.20;99.90;;;;;;5066346;28;20098;-63
2021/05/26 03:52:17;;;;;;;2.25;0.60;;;13.20;99.90;;;;;;5067351;28;20024;-63
2021/05/26 03:54:43;;;;;;;2.30;0.68;;;13.10;99.90;;;;;;5066683;28;20071;-63
2021/05/26 03:57:09;;;;;;;0.93;0.60;;;13.00;99.90;;;;;;5067379;28;20040;-63
2021/05/26 03:59:35;;;;;;;1.20;0.65;;;12.80;99.90;;;;;;5067122;28;20039;-63
2021/05/26 04:02:02;;;;;;;1.05;0.70;;;12.70;99.90;;;;;;5067382;28;20252;-62
2021/05/26 04:04:28;;;;;;;0.88;0.60;;;12.60;99.90;;;;;;5067558;28;20063;-63
2021/05/26 04:06:54;;;;;;;1.55;0.90;;;12.50;99.90;;;;;;5067023;28;20498;-63
2021/05/26 04:09:21;;;;;;;2.13;0.70;;;12.30;99.90;;;;;;5067111;28;20031;-63
2021/05/26 04:11:47;;;;;;;0.50;0.50;;;12.10;99.90;;;;;;5066694;28;20418;-63
2021/05/26 04:14:14;;;;;;;0.85;0.65;;;12.10;99.90;;;;;;5066668;28;20061;-63
2021/05/26 04:16:40;;;;;;;0.70;0.63;;;12.10;99.90;;;;;;5066167;28;20391;-63
2021/05/26 04:19:07;;;;;;;0.90;0.73;;;12.10;99.90;;;;;;5066838;28;20044;-63
2021/05/26 04:21:33;;;;;;;0.68;0.60;;;12.00;99.90;;;;;;5067062;28;20565;-63
2021/05/26 04:23:59;;;;;;;0.65;0.60;;;11.80;99.90;;;;;;5066895;28;20039;-63
2021/05/26 04:26:24;;;;;;;0.98;0.70;;;11.80;99.90;;;;;;5066141;28;20263;-62
2021/05/26 04:28:50;;;;;;;2.78;0.80;;;11.90;99.90;;;;;;5065336;28;20024;-62
2021/05/26 04:31:16;;;;;;;1.33;0.88;;;11.90;99.90;;;;;;5066077;28;20326;-63
2021/05/26 04:33:42;;;;;;;0.82;0.77;;;12.00;99.90;;;;;;5065988;28;20051;-62
2021/05/26 04:36:09;;;;;;;0.63;0.52;;;12.00;99.90;;;;;;5066637;28;20020;-63
2021/05/26 04:38:36;;;;;;;1.15;0.63;;;12.10;99.90;;;;;;5066005;28;20036;-63
2021/05/26 04:41:05;;;;;;;1.23;0.70;;;12.00;99.90;;;;;;5066116;28;20118;-63
2021/05/26 04:43:31;;;;;;;0.85;0.63;;;11.90;99.90;;;;;;5066111;28;20024;-63
2021/05/26 04:46:00;;;;;;;1.27;0.60;;;11.80;99.90;;;;;;5066266;28;20032;-63
2021/05/26 04:48:29;;;;;;;0.90;0.65;;;11.90;99.90;;;;;;5066281;28;20060;-63
2021/05/26 04:50:55;;;;;;;1.73;0.80;;;12.00;99.90;;;;;;5065166;28;20043;-63
2021/05/26 04:53:21;;;;;;;1.95;0.90;;;12.10;99.90;;;;;;5066129;28;20024;-63
2021/05/26 04:55:48;;;;;;;1.02;0.63;;;12.10;99.90;;;;;;5065191;28;20024;-63
2021/05/26 04:58:14;;;;;;;1.23;0.70;;;12.00;99.90;;;;;;5065972;28;20032;-63
2021/05/26 05:00:40;;;;;;;1.02;0.80;;;12.20;99.90;;;;;;5065537;28;20044;-63
2021/05/26 05:03:06;;;;;;;1.63;0.90;;;12.20;99.90;;;;;;5065778;28;20060;-63
2021/05/26 05:05:33;;;;;;;1.45;0.68;;;12.20;99.90;;;;;;5065608;28;20047;-63
2021/05/26 05:08:04;;;;;;;1.02;0.70;;;12.10;99.90;;;;;;5066100;28;20028;-63
2021/05/26 05:10:30;;;;;;;0.90;0.65;;;12.10;99.90;;;;;;5066227;28;20044;-63
2021/05/26 05:12:56;;;;;;;0.82;0.80;;;12.00;99.90;;;;;;5065436;28;20020;-63
2021/05/26 05:15:22;;;;;;;2.20;0.98;;;12.00;99.90;;;;;;5065186;28;20023;-63
2021/05/26 05:17:48;;;;;;;1.30;0.70;;;12.10;99.90;;;;;;5065102;28;20029;-63
2021/05/26 05:20:20;;;;;;;0.98;0.65;;;12.00;99.90;;;;;;5065644;28;20035;-63
2021/05/26 05:22:51;;;;;;;0.70;0.70;;;12.10;99.90;;;;;;5065271;28;20074;-63
2021/05/26 05:25:17;;;;;;;0.70;0.68;;;12.10;99.90;;;;;;5065210;28;20024;-63
2021/05/26 05:27:42;;;;;;;1.63;0.70;;;12.10;99.90;;;;;;5064039;28;20082;-63
2021/05/26 05:30:09;;;;;;;0.88;0.60;;;12.20;99.90;;;;;;5066340;28;20107;-63
2021/05/26 05:32:34;;;;;;;1.45;0.77;;;12.10;99.90;;;;;;5064833;28;20120;-63
2021/05/26 05:35:00;;;;;;;0.98;0.82;;;12.10;99.90;;;;;;5066021;28;20111;-62
2021/05/26 05:37:26;;;;;;;0.70;0.68;;;12.30;99.90;;;;;;5065948;28;20029;-63
2021/05/26 05:39:52;;;;;;;0.63;0.60;;;12.40;99.90;;;;;;5065602;28;20025;-63
2021/05/26 05:42:19;;;;;;;0.73;0.50;;;12.40;99.90;;;;;;5066282;28;20021;-63
2021/05/26 05:44:45;;;;;;;1.08;0.50;;;12.50;99.90;;;;;;5065652;28;20028;-63
2021/05/26 05:47:11;;;;;;;0.73;0.45;;;12.60;99.90;;;;;;5065813;28;20028;-64
2021/05/26 05:49:37;;;;;;;2.03;0.70;;;12.60;99.90;;;;;;5065669;28;20020;-64
2021/05/26 05:52:03;;;;;;;0.93;0.47;;;12.60;99.90;;;;;;5066380;28;20074;-64
2021/05/26 05:54:29;;;;;;;0.65;0.60;;;12.60;99.90;;;;;;5066030;28;20094;-64
2021/05/26 05:56:54;;;;;;;0.77;0.65;;;12.50;99.90;;;;;;5065674;28;20028;-63
2021/05/26 05:59:20;;;;;;;1.05;0.75;;;12.50;99.90;;;;;;5065730;28;20107;-64
2021/05/26 06:01:46;;;;;;;1.48;0.85;;;12.60;99.90;;;;;;5065662;28;20472;-64
2021/05/26 06:04:11;;;;;;;0.60;0.60;;;12.70;99.90;;;;;;5066259;28;20055;-64
2021/05/26 06:06:37;;;;;;;1.02;0.70;;;12.70;99.90;;;;;;5066033;28;20060;-64
2021/05/26 06:09:04;;;;;;;1.27;0.80;;;12.80;99.90;;;;;;5066625;28;20027;-64
2021/05/26 06:11:33;;;;;;;0.68;0.68;;;12.90;99.90;;;;;;5066628;28;20503;-64
2021/05/26 06:14:03;;;;;;;0.77;0.60;;;12.90;99.90;;;;;;5066236;28;20047;-63
2021/05/26 06:16:31;;;;;;;0.63;0.47;;;13.00;99.90;;;;;;5066606;28;20029;-64
2021/05/26 06:18:57;;;;;;;0.50;0.47;;;13.10;99.90;;;;;;5065948;28;20029;-63
2021/05/26 06:21:23;;;;;;;0.60;0.50;;;13.20;99.90;;;;;;5066052;28;20052;-64
2021/05/26 06:23:48;;;;;;;0.82;0.60;;;13.30;99.90;;;;;;5065488;28;20028;-64
2021/05/26 06:26:14;;;;;;;0.70;0.50;;;13.30;99.90;;;;;;5066173;28;20025;-64
2021/05/26 06:28:40;;;;;;;1.30;0.70;;;13.30;99.90;;;;;;5064475;28;20036;-62
2021/05/26 06:31:05;;;;;;;1.00;0.50;;;13.30;99.90;;;;;;5064788;28;20036;-61
2021/05/26 06:33:31;;;;;;;1.20;0.75;;;13.40;99.90;;;;;;5066260;28;20056;-62
2021/05/26 06:35:57;;;;;;;0.60;0.60;;;13.50;99.90;;;;;;5065375;28;20025;-61
2021/05/26 06:38:22;;;;;;;1.30;0.55;;;13.60;99.90;;;;;;5080774;28;20036;-61
2021/05/26 06:40:48;;;;;;;0.80;0.55;;;13.70;99.90;;;;;;5065296;28;20037;-61
2021/05/26 06:43:14;;;;;;;0.65;0.40;;;13.80;99.90;;;;;;5065619;28;20098;-61
2021/05/26 06:45:39;;;;;;;1.45;0.50;;;13.80;99.90;;;;;;5064279;28;20573;-61
2021/05/26 06:48:06;;;;;;;0.50;0.50;;;13.90;99.90;;;;;;5065238;28;20029;-60
2021/05/26 06:50:31;;;;;;;1.23;0.38;;;14.00;99.90;;;;;;5067473;28;20387;-61
2021/05/26 06:52:57;;;;;;;0.50;0.40;;;14.10;99.90;;;;;;5068053;28;20035;-61
2021/05/26 06:55:23;;;;;;;0.57;0.40;;;14.20;99.90;;;;;;5067207;28;20013;-61
2021/05/26 06:57:48;;;;;;;0.65;0.40;;;14.30;99.90;;;;;;5067334;28;20024;-61
2021/05/26 07:00:14;;;;;;;0.65;0.40;;;14.40;99.90;;;;;;5067370;28;20411;-61
2021/05/26 07:02:40;;;;;;;0.43;0.40;;;14.40;99.90;;;;;;5067422;28;20118;-61
2021/05/26 07:05:06;;;;;;;0.40;0.40;;;14.40;99.90;;;;;;5067530;28;20475;-61
2021/05/26 07:07:33;;;;;;;0.63;0.38;;;14.40;99.90;;;;;;5068152;28;20028;-60
2021/05/26 07:09:59;;;;;;;0.70;0.40;;;14.50;99.90;;;;;;5068083;28;20089;-60
2021/05/26 07:12:25;;;;;;;0.50;0.40;;;14.60;99.90;;;;;;5055794;28;20414;-60
2021/05/26 07:14:51;;;;;;;0.70;0.50;;;14.50;99.90;;;;;;5046808;28;20075;-61
2021/05/26 07:17:16;;;;;;;0.40;0.40;;;14.60;99.90;;;;;;5047507;28;20106;-60
2021/05/26 07:19:42;;;;;;;0.40;0.40;;;14.70;99.90;;;;;;5046927;28;20028;-61
2021/05/26 07:22:08;;;;;;;0.40;0.40;;;14.70;99.90;;;;;;5047440;28;20384;-60
2021/05/26 07:24:33;;;;;;;0.68;0.50;;;14.70;99.90;;;;;;5047513;28;20036;-62
2021/05/26 07:27:00;;;;;;;0.55;0.30;;;14.70;99.90;;;;;;5047421;28;20498;-62
2021/05/26 07:29:26;;;;;;;1.65;0.40;;;14.80;99.90;;;;;;5047288;28;20044;-62
2021/05/26 07:31:52;;;;;;;0.25;0.25;;;14.80;99.90;;;;;;5046609;28;20037;-62
2021/05/26 07:34:18;;;;;;;0.40;0.40;;;15.00;99.90;;;;;;5046928;28;20024;-60
2021/05/26 07:36:43;;;;;;;1.13;0.60;;;14.90;99.90;;;;;;5051577;28;20111;-61
2021/05/26 07:39:09;;;;;;;1.10;0.30;;;15.00;99.90;;;;;;5065611;28;20495;-60
2021/05/26 07:41:35;;;;;;;0.40;0.40;;;15.10;99.90;;;;;;5064866;28;20041;-62
2021/05/26 07:44:01;;;;;;;0.35;0.35;;;15.20;99.90;;;;;;5067270;28;20017;-61
2021/05/26 07:46:27;;;;;;;0.30;0.30;;;15.20;99.90;;;;;;5066594;28;20031;-61
2021/05/26 07:48:53;;;;;;;0.40;0.30;;;15.30;99.90;;;;;;5066179;28;20127;-62
2021/05/26 07:51:27;;;;;;;0.90;0.40;;;15.20;99.90;;;;;;5066823;28;20017;-62
2021/05/26 07:53:53;;;;;;;;;;;15.20;99.90;;;;;;5066125;28;20032;-59
2021/05/26 07:56:20;;;;;;;0.30;0.30;;;15.30;99.90;;;;;;5059721;28;19963;-60
2021/05/26 07:58:46;;;;;;;0.75;0.50;;;15.40;99.90;;;;;;5053147;28;20238;-59
2021/05/26 08:01:11;;;;;;;0.50;0.40;;;15.30;99.90;;;;;;5065990;28;20035;-60
2021/05/26 08:03:37;;;;;;;0.93;0.40;;;15.50;99.90;;;;;;5061032;28;20021;-59
2021/05/26 08:06:03;;;;;;;0.30;0.30;;;15.30;99.90;;;;;;5046502;28;20032;-61
2021/05/26 08:08:30;;;;;;;0.30;0.30;;;15.40;99.90;;;;;;5063433;28;20047;-61
2021/05/26 08:10:56;;;;;;;0.40;0.40;;;15.50;99.90;;;;;;5067100;28;20126;-61
2021/05/26 08:13:22;;;;;;;0.73;0.30;;;15.50;99.90;;;;;;5070899;28;20119;-60
2021/05/26 08:15:47;;;;;;;0.52;0.40;;;15.70;99.90;;;;;;5063108;28;20111;-61
2021/05/26 08:18:21;;;;;;;0.73;0.40;;;15.50;99.90;;;;;;5065350;28;20207;-61
2021/05/26 08:20:48;;;;;;;0.70;0.40;;;15.70;99.90;;;;;;5066064;28;20499;-61
2021/05/26 08:23:14;;;;;;;0.40;0.40;;;15.80;99.90;;;;;;5063514;28;20037;-60
2021/05/26 08:25:40;;;;;;;0.35;0.35;;;15.80;99.90;;;;;;5065665;28;20021;-61
2021/05/26 08:28:07;;;;;;;0.30;0.30;;;15.90;99.90;;;;;;5065941;28;20020;-60
2021/05/26 08:30:33;;;;;;;0.38;0.30;;;16.00;99.90;;;;;;5066229;28;20077;-60
2021/05/26 08:32:59;;;;;;;0.28;0.28;;;15.90;99.90;;;;;;5066412;28;20017;-59
2021/05/26 08:35:25;;;;;;;1.00;0.52;;;15.90;99.90;;;;;;5065760;28;20484;-59
2021/05/26 08:37:50;;;;;;;0.40;0.40;;;16.00;99.90;;;;;;5065220;28;20029;-60
2021/05/26 08:40:19;;;;;;;0.77;0.30;;;16.20;99.90;;;;;;5065618;28;20019;-60
2021/05/26 08:42:46;;;;;;;0.57;0.40;;;16.30;99.90;;;;;;5065296;28;20036;-60
2021/05/26 08:45:13;;;;;;;0.20;0.20;;;16.30;99.90;;;;;;5065579;28;20024;-61
2021/05/26 08:47:42;;;;;;;0.22;0.22;;;16.40;99.90;;;;;;5065186;28;20479;-61
2021/05/26 08:50:08;;;;;;;0.30;0.30;;;16.40;99.90;;;;;;5065690;28;20050;-61
2021/05/26 08:52:35;;;;;;;1.35;0.40;;;16.20;99.90;;;;;;5065472;28;20435;-60
2021/05/26 08:55:02;;;;;;;0.52;0.40;;;16.20;99.90;;;;;;5065686;28;20028;-60
2021/05/26 08:57:27;;;;;;;1.20;0.40;;;16.20;99.90;;;;;;5065203;28;20028;-60
2021/05/26 08:59:53;;;;;;;0.63;0.40;;;16.00;99.90;;;;;;5064941;28;20035;-61
2021/05/26 09:02:20;;;;;;;0.60;0.40;;;16.30;99.90;;;;;;5065072;28;20483;-62
2021/05/26 09:04:45;;;;;;;0.60;0.30;;;16.30;99.90;;;;;;5064883;28;20363;-61
2021/05/26 09:07:13;;;;;;;0.50;0.30;;;16.40;99.90;;;;;;5065163;28;20028;-60
2021/05/26 09:09:52;;;;;;;0.20;0.20;;;16.60;99.90;;;;;;5064983;28;20020;-61
2021/05/26 09:12:32;;;;;;;2.33;0.30;;;16.60;99.90;;;;;;5065021;28;20043;-60
2021/05/26 09:15:10;;;;;;;0.38;0.30;;;16.50;99.90;;;;;;5064415;28;20024;-60
2021/05/26 09:17:36;;;;;;;0.52;0.38;;;16.50;99.90;;;;;;5064116;28;20115;-61
2021/05/26 09:20:13;;;;;;;0.35;0.35;;;16.70;99.90;;;;;;5065667;28;20028;-64
2021/05/26 09:22:41;;;;;;;0.75;0.40;;;16.70;99.90;;;;;;5064413;28;20059;-60
2021/05/26 09:25:10;;;;;;;0.45;0.25;;;16.60;99.90;;;;;;5065009;28;20027;-62
2021/05/26 09:27:36;;;;;;;0.40;0.40;;;16.90;99.90;;;;;;5064690;28;20028;-61
2021/05/26 09:30:02;;;;;;;0.35;0.30;;;16.80;99.90;;;;;;5063957;28;20017;-62
2021/05/26 09:32:30;;;;;;;0.57;0.40;;;16.80;99.90;;;;;;5065264;28;20024;-61
2021/05/26 09:34:58;;;;;;;1.75;0.60;;;16.70;99.90;;;;;;5064411;28;20074;-61
2021/05/26 09:37:37;;;;;;;0.20;0.20;;;16.80;99.90;;;;;;5064459;28;20051;-63
2021/05/26 09:40:07;;;;;;;0.30;0.30;;;17.20;99.90;;;;;;5064527;28;20383;-62
2021/05/26 09:42:36;;;;;;;0.57;0.30;;;17.00;99.90;;;;;;5063478;28;20538;-61
2021/05/26 09:45:02;;;;;;;1.73;0.60;;;17.10;99.90;;;;;;5046480;28;20288;-61
2021/05/26 09:47:55;;;;;;;1.08;0.60;;;16.80;99.90;;;;;;5043817;28;20550;-62
2021/05/26 09:50:26;;;;;;;1.95;0.68;;;16.70;99.90;;;;;;5059817;28;20111;-59
2021/05/26 09:53:02;;;;;;;1.23;0.50;;;17.00;99.90;;;;;;5063447;28;20025;-61
2021/05/26 09:55:35;;;;;;;2.28;0.93;;;17.00;99.90;;;;;;5076827;28;20023;-60
2021/05/26 09:58:01;;;;;;;2.53;0.70;;;16.80;99.90;;;;;;5083771;28;20036;-62
2021/05/26 10:00:28;;;;;;;0.60;0.40;;;16.80;99.90;;;;;;5083271;28;20495;-60
2021/05/26 10:02:54;;;;;;;1.00;0.60;;;17.00;99.90;;;;;;5083240;28;20024;-61
2021/05/26 10:05:21;;;;;;;1.90;0.80;;;16.90;99.90;;;;;;5083333;28;20453;-60
2021/05/26 10:07:51;;;;;;;1.23;0.50;;;17.00;99.90;;;;;;5074858;28;20088;-61
2021/05/26 10:10:18;;;;;;;2.25;0.57;;;17.10;99.90;;;;;;5063030;28;20029;-62
2021/05/26 10:12:50;;;;;;;1.20;0.73;;;17.20;99.90;;;;;;5063192;28;20035;-60
2021/05/26 10:15:18;;;;;;;1.02;0.70;;;17.20;99.90;;;;;;5063505;28;20386;-60
2021/05/26 10:17:49;;;;;;;1.10;0.70;;;17.30;99.90;;;;;;5062970;28;20029;-60
2021/05/26 10:20:16;;;;;;;0.80;0.50;;;17.40;99.90;;;;;;5063999;28;20091;-60
2021/05/26 10:22:42;;;;;;;0.93;0.60;;;17.50;99.90;;;;;;5063993;28;20037;-62
2021/05/26 10:25:11;;;;;;;1.08;0.50;;;17.70;99.90;;;;;;5064803;28;20027;-61
2021/05/26 10:27:43;;;;;;;0.70;0.50;;;17.70;99.90;;;;;;5062903;28;20024;-61
2021/05/26 10:30:10;;;;;;;0.55;0.40;;;17.90;99.90;;;;;;5061461;28;20024;-60
2021/05/26 10:32:53;;;;;;;0.52;0.40;;;17.80;99.90;;;;;;5067694;28;20051;-60
2021/05/26 10:35:21;;;;;;;1.50;0.50;;;17.80;99.90;;;;;;5070611;28;20028;-60
2021/05/26 10:38:03;;;;;;;1.20;0.50;;;17.80;99.90;;;;;;5069873;28;20029;-60
2021/05/26 10:40:34;;;;;;;0.70;0.43;;;18.00;99.90;;;;;;5071718;28;20434;-60
2021/05/26 10:43:21;;;;;;;0.30;0.30;;;18.00;99.90;;;;;;5069899;28;20036;-60
2021/05/26 10:45:48;;;;;;;1.00;0.60;;;18.10;99.90;;;;;;5067851;28;20036;-60
2021/05/26 10:48:14;;;;;;;1.58;1.00;;;18.10;99.90;;;;;;5067967;28;20130;-59
2021/05/26 10:50:52;;;;;;;1.77;0.95;;;18.20;99.90;;;;;;5067999;28;20090;-59
2021/05/26 10:53:18;;;;;;;0.82;0.70;;;18.10;99.90;;;;;;5070608;28;20154;-60
2021/05/26 10:55:46;;;;;;;0.60;0.50;;;18.20;99.90;;;;;;5068979;28;20099;-60
2021/05/26 10:58:19;;;;;;;0.75;0.40;;;18.30;99.90;;;;;;5069740;28;20032;-61
2021/05/26 11:01:08;;;;;;;0.50;0.50;;;18.30;99.90;;;;;;5069049;28;20025;-61
2021/05/26 11:03:41;;;;;;;1.42;0.50;;;18.50;99.90;;;;;;5050133;28;20040;-61
2021/05/26 11:06:10;;;;;;;1.17;0.50;;;18.50;99.90;;;;;;5064112;28;20445;-58
2021/05/26 11:08:42;;;;;;;1.77;0.70;;;18.50;99.90;;;;;;5070106;28;20115;-58
2021/05/26 11:11:23;;;;;;;0.60;0.60;;;18.50;99.90;;;;;;5068987;28;20078;-59
2021/05/26 11:14:01;;;;;;;1.00;0.80;;;18.80;99.90;;;;;;5066537;28;20315;-58
2021/05/26 11:16:51;;;;;;;2.05;0.95;;;18.80;99.90;;;;;;5068741;28;20459;-59
2021/05/26 11:19:22;;;;;;;2.42;0.90;;;18.60;99.90;;;;;;5070759;28;20028;-58
2021/05/26 11:21:57;;;;;;;1.17;0.80;;;18.60;99.90;;;;;;5070780;28;20029;-58
2021/05/26 11:24:26;;;;;;;0.63;0.63;;;18.80;99.90;;;;;;5069930;28;20025;-58
2021/05/26 11:26:52;;;;;;;0.57;0.57;;;19.00;99.90;;;;;;5082821;28;20111;-58
2021/05/26 11:29:38;;;;;;;1.35;0.90;;;19.20;99.90;;;;;;5072316;28;20100;-58
2021/05/26 11:32:07;;;;;;;4.05;1.20;;;19.00;99.90;;;;;;5054869;28;20029;-59
2021/05/26 11:34:34;;;;;;;1.45;0.90;;;19.10;99.90;;;;;;5069260;28;20306;-58
2021/05/26 11:37:02;;;;;;;1.58;1.05;;;19.20;99.90;;;;;;5051349;28;20548;-58
2021/05/26 11:39:30;;;;;;;1.13;0.70;;;19.30;99.90;;;;;;5047961;28;20025;-58
2021/05/26 11:42:14;;;;;;;2.45;1.17;;;19.20;99.90;;;;;;5065886;28;20032;-58
2021/05/26 11:45:00;;;;;;;2.17;1.20;;;19.10;99.90;;;;;;5066822;28;20060;-59
2021/05/26 11:47:41;;;;;;;1.52;0.88;;;19.30;99.90;;;;;;5067028;28;20518;-58
2021/05/26 11:50:13;;;;;;;1.08;0.70;;;19.30;99.90;;;;;;5067265;28;20055;-58
2021/05/26 11:52:46;;;;;;;1.38;0.70;;;19.60;99.90;;;;;;5066115;28;20096;-58
2021/05/26 11:55:14;;;;;;;1.63;0.80;;;19.70;99.90;;;;;;5065290;28;20120;-57
2021/05/26 11:57:41;;;;;;;1.17;0.65;;;19.60;99.90;;;;;;5065490;28;20028;-57
2021/05/26 12:00:09;;;;;;;1.42;0.65;;;19.80;99.90;;;;;;5067935;28;20029;-57
2021/05/26 12:02:35;;;;;;;1.45;0.60;;;20.00;99.90;;;;;;5067474;28;20039;-57
2021/05/26 12:05:01;;;;;;;1.08;0.65;;;20.20;99.90;;;;;;5069311;28;20033;-57
2021/05/26 12:07:28;;;;;;;0.70;0.50;;;20.30;99.90;;;;;;5067469;28;20544;-58
2021/05/26 12:10:01;;;;;;;1.23;0.60;;;20.40;99.90;;;;;;5066664;28;20056;-57
2021/05/26 12:12:27;;;;;;;0.55;0.47;;;20.70;99.90;;;;;;5066827;28;20067;-58
2021/05/26 12:14:53;;;;;;;0.93;0.50;;;20.70;99.90;;;;;;5066433;28;20548;-58
2021/05/26 12:17:22;;;;;;;0.70;0.65;;;20.90;99.80;;;;;;5066710;28;20025;-57
2021/05/26 12:19:50;;;;;;;0.55;0.55;;;21.00;99.90;;;;;;5066432;28;20086;-57
2021/05/26 12:22:22;;;;;;;0.73;0.50;;;21.00;99.80;;;;;;5066829;28;20463;-58
2021/05/26 12:25:14;;;;;;;1.15;0.47;;;21.40;99.60;;;;;;5066534;28;20082;-57
2021/05/26 12:27:44;;;;;;;1.60;0.70;;;21.70;99.50;;;;;;5064789;28;20131;-57
2021/05/26 12:30:19;;;;;;;1.10;0.50;;;21.30;98.90;;;;;;5066431;28;20025;-57
2021/05/26 12:32:48;;;;;;;0.98;0.60;;;21.60;99.20;;;;;;5066484;28;20025;-58
2021/05/26 12:35:20;;;;;;;1.60;0.80;;;21.80;99.20;;;;;;5066303;28;20101;-57
2021/05/26 12:37:51;;;;;;;0.65;0.50;;;22.10;99.20;;;;;;5065971;28;20025;-57
2021/05/26 12:40:26;;;;;;;0.88;0.50;;;22.50;98.90;;;;;;5066865;28;20025;-57
2021/05/26 12:42:55;;;;;;;1.05;0.50;;;22.40;98.90;;;;;;5065773;28;20029;-57
2021/05/26 12:45:31;;;;;;;2.20;0.65;;;22.60;99.40;;;;;;5066053;28;20066;-57
2021/05/26 12:47:59;;;;;;;1.27;0.60;;;22.50;98.20;;;;;;5065767;28;20029;-58
2021/05/26 12:50:32;;;;;;;1.10;0.70;;;22.50;98.50;;;;;;5066169;28;20396;-58
2021/05/26 12:53:11;;;;;;;0.70;0.50;;;22.80;98.30;;;;;;5065883;28;20232;-57
2021/05/26 12:55:37;;;;;;;0.60;0.40;;;22.90;99.40;;;;;;5065282;28;20021;-58